sensor_id;sensor_type;location;lat;lon;timestamp;P1;durP1;ratioP1;P2;durP2;ratioP2
3267;SDS011;1646;52.450;13.326;2023-03-03T00:01:41;35.10;;;16.17;;
3267;SDS011;1646;52.450;13.326;2023-03-03T00:06:39;37.30;;;18.70;;
3267;SDS011;1646;52.450;13.326;2023-03-03T00:11:39;36.10;;;17.63;;
3267;SDS011;1646;52.450;13.326;2023-03-03T00:16:37;40.97;;;18.20;;
3267;SDS011;1646;52.450;13.326;2023-03-03T00:21:39;34.07;;;16.50;;
3267;SDS011;1646;52.450;13.326;2023-03-03T00:26:40;32.03;;;15.53;;
3267;SDS011;1646;52.450;13.326;2023-03-03T00:31:41;31.57;;;15.03;;
3267;SDS011;1646;52.450;13.326;2023-03-03T00:36:39;39.03;;;14.87;;
3267;SDS011;1646;52.450;13.326;2023-03-03T00:41:39;27.73;;;13.30;;
3267;SDS011;1646;52.450;13.326;2023-03-03T00:46:38;34.83;;;15.80;;
3267;SDS011;1646;52.450;13.326;2023-03-03T00:51:36;33.97;;;14.30;;
3267;SDS011;1646;52.450;13.326;2023-03-03T00:56:35;31.27;;;14.07;;
3267;SDS011;1646;52.450;13.326;2023-03-03T01:01:36;35.57;;;15.27;;
3267;SDS011;1646;52.450;13.326;2023-03-03T01:06:34;29.53;;;13.07;;
3267;SDS011;1646;52.450;13.326;2023-03-03T01:11:33;31.23;;;13.73;;
3267;SDS011;1646;52.450;13.326;2023-03-03T01:16:32;26.90;;;14.10;;
3267;SDS011;1646;52.450;13.326;2023-03-03T01:21:32;34.07;;;14.47;;
3267;SDS011;1646;52.450;13.326;2023-03-03T01:26:31;34.13;;;14.43;;
3267;SDS011;1646;52.450;13.326;2023-03-03T01:31:29;34.20;;;14.00;;
3267;SDS011;1646;52.450;13.326;2023-03-03T01:36:27;25.07;;;12.77;;
3267;SDS011;1646;52.450;13.326;2023-03-03T01:41:27;35.40;;;15.47;;
3267;SDS011;1646;52.450;13.326;2023-03-03T01:46:31;32.53;;;15.73;;
3267;SDS011;1646;52.450;13.326;2023-03-03T01:51:40;33.63;;;15.37;;
3267;SDS011;1646;52.450;13.326;2023-03-03T01:56:44;34.53;;;16.70;;
3267;SDS011;1646;52.450;13.326;2023-03-03T02:01:43;38.23;;;16.40;;
3267;SDS011;1646;52.450;13.326;2023-03-03T02:06:44;33.53;;;15.73;;
3267;SDS011;1646;52.450;13.326;2023-03-03T02:11:49;35.00;;;15.50;;
3267;SDS011;1646;52.450;13.326;2023-03-03T02:16:49;33.63;;;16.47;;
3267;SDS011;1646;52.450;13.326;2023-03-03T02:21:49;38.40;;;17.63;;
3267;SDS011;1646;52.450;13.326;2023-03-03T02:26:50;42.53;;;17.30;;
3267;SDS011;1646;52.450;13.326;2023-03-03T02:31:48;38.20;;;15.90;;
3267;SDS011;1646;52.450;13.326;2023-03-03T02:36:50;37.40;;;15.70;;
3267;SDS011;1646;52.450;13.326;2023-03-03T02:41:50;38.40;;;17.00;;
3267;SDS011;1646;52.450;13.326;2023-03-03T02:46:57;39.70;;;17.30;;
3267;SDS011;1646;52.450;13.326;2023-03-03T02:51:56;46.80;;;18.40;;
3267;SDS011;1646;52.450;13.326;2023-03-03T02:56:57;44.33;;;17.20;;
3267;SDS011;1646;52.450;13.326;2023-03-03T03:01:56;40.23;;;16.90;;
3267;SDS011;1646;52.450;13.326;2023-03-03T03:06:54;39.73;;;16.67;;
3267;SDS011;1646;52.450;13.326;2023-03-03T03:11:57;48.63;;;18.80;;
3267;SDS011;1646;52.450;13.326;2023-03-03T03:17:01;46.63;;;17.50;;
3267;SDS011;1646;52.450;13.326;2023-03-03T03:22:00;48.47;;;19.90;;
3267;SDS011;1646;52.450;13.326;2023-03-03T03:27:02;46.13;;;18.57;;
3267;SDS011;1646;52.450;13.326;2023-03-03T03:32:01;49.90;;;19.90;;
3267;SDS011;1646;52.450;13.326;2023-03-03T03:37:00;50.47;;;17.87;;
3267;SDS011;1646;52.450;13.326;2023-03-03T03:41:58;50.50;;;19.93;;
3267;SDS011;1646;52.450;13.326;2023-03-03T03:46:58;45.43;;;19.47;;
3267;SDS011;1646;52.450;13.326;2023-03-03T03:52:14;55.00;;;18.83;;
3267;SDS011;1646;52.450;13.326;2023-03-03T03:57:12;49.63;;;18.60;;
3267;SDS011;1646;52.450;13.326;2023-03-03T04:02:13;47.13;;;17.27;;
3267;SDS011;1646;52.450;13.326;2023-03-03T04:07:12;52.93;;;19.67;;
3267;SDS011;1646;52.450;13.326;2023-03-03T04:12:10;48.37;;;18.13;;
3267;SDS011;1646;52.450;13.326;2023-03-03T04:17:09;68.03;;;21.80;;
3267;SDS011;1646;52.450;13.326;2023-03-03T04:22:12;75.53;;;22.10;;
3267;SDS011;1646;52.450;13.326;2023-03-03T04:27:33;50.23;;;17.83;;
3267;SDS011;1646;52.450;13.326;2023-03-03T04:32:34;44.87;;;17.80;;
3267;SDS011;1646;52.450;13.326;2023-03-03T04:37:36;47.83;;;16.97;;
3267;SDS011;1646;52.450;13.326;2023-03-03T04:42:36;38.13;;;15.30;;
3267;SDS011;1646;52.450;13.326;2023-03-03T04:47:37;49.03;;;15.50;;
3267;SDS011;1646;52.450;13.326;2023-03-03T04:52:36;43.87;;;15.53;;
3267;SDS011;1646;52.450;13.326;2023-03-03T04:57:36;40.87;;;15.63;;
3267;SDS011;1646;52.450;13.326;2023-03-03T05:02:35;44.47;;;14.00;;
3267;SDS011;1646;52.450;13.326;2023-03-03T05:07:35;46.03;;;13.93;;
3267;SDS011;1646;52.450;13.326;2023-03-03T05:12:33;42.83;;;14.20;;
3267;SDS011;1646;52.450;13.326;2023-03-03T05:17:31;44.67;;;16.07;;
3267;SDS011;1646;52.450;13.326;2023-03-03T05:22:30;73.13;;;18.17;;
3267;SDS011;1646;52.450;13.326;2023-03-03T05:27:30;65.60;;;19.70;;
3267;SDS011;1646;52.450;13.326;2023-03-03T05:32:28;40.50;;;15.83;;
3267;SDS011;1646;52.450;13.326;2023-03-03T05:37:44;39.57;;;14.60;;
3267;SDS011;1646;52.450;13.326;2023-03-03T05:42:45;32.67;;;13.87;;
3267;SDS011;1646;52.450;13.326;2023-03-03T05:47:44;34.57;;;13.73;;
3267;SDS011;1646;52.450;13.326;2023-03-03T05:52:42;38.00;;;14.03;;
3267;SDS011;1646;52.450;13.326;2023-03-03T05:57:40;33.07;;;13.37;;
3267;SDS011;1646;52.450;13.326;2023-03-03T06:02:40;31.33;;;13.33;;
3267;SDS011;1646;52.450;13.326;2023-03-03T06:07:39;34.23;;;13.17;;
3267;SDS011;1646;52.450;13.326;2023-03-03T06:12:37;33.37;;;14.03;;
3267;SDS011;1646;52.450;13.326;2023-03-03T06:17:37;35.30;;;13.60;;
3267;SDS011;1646;52.450;13.326;2023-03-03T06:22:37;37.43;;;12.67;;
3267;SDS011;1646;52.450;13.326;2023-03-03T06:27:35;26.57;;;10.93;;
3267;SDS011;1646;52.450;13.326;2023-03-03T06:32:33;24.67;;;10.60;;
3267;SDS011;1646;52.450;13.326;2023-03-03T06:37:32;25.43;;;10.80;;
3267;SDS011;1646;52.450;13.326;2023-03-03T06:42:32;35.47;;;11.50;;
3267;SDS011;1646;52.450;13.326;2023-03-03T06:47:30;33.77;;;12.40;;
3267;SDS011;1646;52.450;13.326;2023-03-03T06:52:29;41.37;;;13.90;;
3267;SDS011;1646;52.450;13.326;2023-03-03T06:57:28;35.50;;;12.97;;
3267;SDS011;1646;52.450;13.326;2023-03-03T07:02:29;37.10;;;13.83;;
3267;SDS011;1646;52.450;13.326;2023-03-03T07:07:27;35.40;;;13.67;;
3267;SDS011;1646;52.450;13.326;2023-03-03T07:12:27;37.70;;;13.33;;
3267;SDS011;1646;52.450;13.326;2023-03-03T07:17:26;34.27;;;12.20;;
3267;SDS011;1646;52.450;13.326;2023-03-03T07:22:27;37.57;;;13.33;;
3267;SDS011;1646;52.450;13.326;2023-03-03T07:27:27;32.50;;;11.70;;
3267;SDS011;1646;52.450;13.326;2023-03-03T07:32:27;30.50;;;11.67;;
3267;SDS011;1646;52.450;13.326;2023-03-03T07:37:36;24.90;;;10.43;;
3267;SDS011;1646;52.450;13.326;2023-03-03T07:42:38;33.57;;;11.47;;
3267;SDS011;1646;52.450;13.326;2023-03-03T07:47:57;29.03;;;11.23;;
3267;SDS011;1646;52.450;13.326;2023-03-03T07:53:07;27.60;;;11.17;;
3267;SDS011;1646;52.450;13.326;2023-03-03T07:58:15;31.10;;;11.77;;
3267;SDS011;1646;52.450;13.326;2023-03-03T08:03:20;31.80;;;12.40;;
3267;SDS011;1646;52.450;13.326;2023-03-03T08:08:23;22.90;;;9.80;;
3267;SDS011;1646;52.450;13.326;2023-03-03T08:13:27;31.30;;;10.67;;
3267;SDS011;1646;52.450;13.326;2023-03-03T08:18:35;30.13;;;12.23;;
3267;SDS011;1646;52.450;13.326;2023-03-03T08:23:35;36.73;;;11.47;;
3267;SDS011;1646;52.450;13.326;2023-03-03T08:28:33;30.27;;;10.40;;
3267;SDS011;1646;52.450;13.326;2023-03-03T08:33:31;30.00;;;10.00;;
3267;SDS011;1646;52.450;13.326;2023-03-03T08:38:31;19.07;;;8.30;;
3267;SDS011;1646;52.450;13.326;2023-03-03T08:43:29;22.83;;;8.30;;
3267;SDS011;1646;52.450;13.326;2023-03-03T08:48:28;19.50;;;7.93;;
3267;SDS011;1646;52.450;13.326;2023-03-03T08:53:26;16.10;;;7.50;;
3267;SDS011;1646;52.450;13.326;2023-03-03T08:58:26;18.83;;;7.77;;
3267;SDS011;1646;52.450;13.326;2023-03-03T09:03:31;25.37;;;9.00;;
3267;SDS011;1646;52.450;13.326;2023-03-03T09:08:29;20.47;;;8.67;;
3267;SDS011;1646;52.450;13.326;2023-03-03T09:13:29;20.17;;;7.90;;
3267;SDS011;1646;52.450;13.326;2023-03-03T09:18:30;18.67;;;8.30;;
3267;SDS011;1646;52.450;13.326;2023-03-03T09:23:33;18.47;;;7.77;;
3267;SDS011;1646;52.450;13.326;2023-03-03T09:28:34;20.33;;;8.20;;
3267;SDS011;1646;52.450;13.326;2023-03-03T09:33:38;19.97;;;7.67;;
3267;SDS011;1646;52.450;13.326;2023-03-03T09:38:39;17.53;;;7.30;;
3267;SDS011;1646;52.450;13.326;2023-03-03T09:43:43;21.20;;;8.53;;
3267;SDS011;1646;52.450;13.326;2023-03-03T09:48:57;15.30;;;7.00;;
3267;SDS011;1646;52.450;13.326;2023-03-03T09:54:08;15.87;;;6.87;;
3267;SDS011;1646;52.450;13.326;2023-03-03T09:59:20;15.03;;;6.87;;
3267;SDS011;1646;52.450;13.326;2023-03-03T10:04:37;17.47;;;7.20;;
3267;SDS011;1646;52.450;13.326;2023-03-03T10:09:47;15.37;;;6.57;;
3267;SDS011;1646;52.450;13.326;2023-03-03T10:15:09;19.73;;;8.20;;
3267;SDS011;1646;52.450;13.326;2023-03-03T10:20:19;20.00;;;9.17;;
3267;SDS011;1646;52.450;13.326;2023-03-03T10:25:45;15.30;;;7.23;;
3267;SDS011;1646;52.450;13.326;2023-03-03T10:30:52;18.80;;;7.60;;
3267;SDS011;1646;52.450;13.326;2023-03-03T10:36:13;18.73;;;7.33;;
3267;SDS011;1646;52.450;13.326;2023-03-03T10:41:29;17.87;;;7.20;;
3267;SDS011;1646;52.450;13.326;2023-03-03T10:46:40;17.60;;;7.50;;
3267;SDS011;1646;52.450;13.326;2023-03-03T10:51:57;18.97;;;8.10;;
3267;SDS011;1646;52.450;13.326;2023-03-03T10:57:12;21.50;;;9.33;;
3267;SDS011;1646;52.450;13.326;2023-03-03T11:02:21;15.13;;;7.27;;
3267;SDS011;1646;52.450;13.326;2023-03-03T11:07:25;21.60;;;8.63;;
3267;SDS011;1646;52.450;13.326;2023-03-03T11:12:28;31.00;;;11.20;;
3267;SDS011;1646;52.450;13.326;2023-03-03T11:17:39;26.20;;;10.70;;
3267;SDS011;1646;52.450;13.326;2023-03-03T11:22:51;23.50;;;10.23;;
3267;SDS011;1646;52.450;13.326;2023-03-03T11:28:06;26.03;;;11.30;;
3267;SDS011;1646;52.450;13.326;2023-03-03T11:33:19;34.93;;;13.23;;
3267;SDS011;1646;52.450;13.326;2023-03-03T11:38:30;28.53;;;12.03;;
3267;SDS011;1646;52.450;13.326;2023-03-03T11:43:50;24.97;;;10.97;;
3267;SDS011;1646;52.450;13.326;2023-03-03T11:48:53;33.30;;;12.13;;
3267;SDS011;1646;52.450;13.326;2023-03-03T11:53:57;25.83;;;11.13;;
3267;SDS011;1646;52.450;13.326;2023-03-03T11:59:03;30.90;;;11.83;;
3267;SDS011;1646;52.450;13.326;2023-03-03T12:04:18;29.40;;;12.97;;
3267;SDS011;1646;52.450;13.326;2023-03-03T12:09:22;34.30;;;13.03;;
3267;SDS011;1646;52.450;13.326;2023-03-03T12:14:35;28.20;;;11.33;;
3267;SDS011;1646;52.450;13.326;2023-03-03T12:19:47;34.07;;;12.17;;
3267;SDS011;1646;52.450;13.326;2023-03-03T12:24:57;28.57;;;11.60;;
3267;SDS011;1646;52.450;13.326;2023-03-03T12:30:09;30.80;;;13.57;;
3267;SDS011;1646;52.450;13.326;2023-03-03T12:35:16;29.93;;;11.70;;
3267;SDS011;1646;52.450;13.326;2023-03-03T12:40:23;23.87;;;10.47;;
3267;SDS011;1646;52.450;13.326;2023-03-03T12:45:28;28.83;;;12.70;;
3267;SDS011;1646;52.450;13.326;2023-03-03T12:50:41;25.37;;;11.70;;
3267;SDS011;1646;52.450;13.326;2023-03-03T12:55:51;29.50;;;12.27;;
3267;SDS011;1646;52.450;13.326;2023-03-03T13:00:53;29.93;;;12.10;;
3267;SDS011;1646;52.450;13.326;2023-03-03T13:06:05;31.77;;;12.70;;
3267;SDS011;1646;52.450;13.326;2023-03-03T13:11:14;30.77;;;12.23;;
3267;SDS011;1646;52.450;13.326;2023-03-03T13:16:26;26.87;;;13.23;;
3267;SDS011;1646;52.450;13.326;2023-03-03T13:21:39;29.70;;;12.63;;
3267;SDS011;1646;52.450;13.326;2023-03-03T13:27:18;25.87;;;10.50;;
3267;SDS011;1646;52.450;13.326;2023-03-03T13:32:21;26.27;;;12.37;;
3267;SDS011;1646;52.450;13.326;2023-03-03T13:37:22;30.00;;;12.87;;
3267;SDS011;1646;52.450;13.326;2023-03-03T13:42:26;36.77;;;14.20;;
3267;SDS011;1646;52.450;13.326;2023-03-03T13:47:30;31.40;;;13.30;;
3267;SDS011;1646;52.450;13.326;2023-03-03T13:52:39;30.47;;;13.53;;
3267;SDS011;1646;52.450;13.326;2023-03-03T13:57:44;28.93;;;12.43;;
3267;SDS011;1646;52.450;13.326;2023-03-03T14:08:38;33.70;;;14.33;;
3267;SDS011;1646;52.450;13.326;2023-03-03T14:14:02;34.03;;;13.43;;
3267;SDS011;1646;52.450;13.326;2023-03-03T14:19:08;33.10;;;13.90;;
3267;SDS011;1646;52.450;13.326;2023-03-03T14:24:15;23.10;;;11.20;;
3267;SDS011;1646;52.450;13.326;2023-03-03T14:29:19;28.07;;;13.50;;
3267;SDS011;1646;52.450;13.326;2023-03-03T14:34:29;21.37;;;10.60;;
3267;SDS011;1646;52.450;13.326;2023-03-03T14:39:34;26.00;;;12.20;;
3267;SDS011;1646;52.450;13.326;2023-03-03T14:44:34;26.57;;;12.27;;
3267;SDS011;1646;52.450;13.326;2023-03-03T14:49:35;19.50;;;9.60;;
3267;SDS011;1646;52.450;13.326;2023-03-03T14:54:36;28.77;;;12.73;;
3267;SDS011;1646;52.450;13.326;2023-03-03T14:59:37;26.77;;;12.23;;
3267;SDS011;1646;52.450;13.326;2023-03-03T15:04:36;30.87;;;12.77;;
3267;SDS011;1646;52.450;13.326;2023-03-03T15:09:37;27.87;;;11.17;;
3267;SDS011;1646;52.450;13.326;2023-03-03T15:14:41;21.30;;;10.40;;
3267;SDS011;1646;52.450;13.326;2023-03-03T15:19:43;24.43;;;11.80;;
3267;SDS011;1646;52.450;13.326;2023-03-03T15:24:50;22.70;;;11.50;;
3267;SDS011;1646;52.450;13.326;2023-03-03T15:30:08;26.90;;;12.90;;
3267;SDS011;1646;52.450;13.326;2023-03-03T15:35:14;22.07;;;10.90;;
3267;SDS011;1646;52.450;13.326;2023-03-03T15:40:25;28.13;;;11.90;;
3267;SDS011;1646;52.450;13.326;2023-03-03T15:45:26;25.03;;;11.50;;
3267;SDS011;1646;52.450;13.326;2023-03-03T15:50:31;24.40;;;12.00;;
3267;SDS011;1646;52.450;13.326;2023-03-03T15:55:46;26.10;;;11.90;;
3267;SDS011;1646;52.450;13.326;2023-03-03T16:00:56;20.90;;;10.97;;
3267;SDS011;1646;52.450;13.326;2023-03-03T16:06:07;21.20;;;11.00;;
3267;SDS011;1646;52.450;13.326;2023-03-03T16:11:11;28.50;;;12.27;;
3267;SDS011;1646;52.450;13.326;2023-03-03T16:16:19;25.20;;;10.80;;
3267;SDS011;1646;52.450;13.326;2023-03-03T16:21:32;24.97;;;11.33;;
3267;SDS011;1646;52.450;13.326;2023-03-03T16:26:46;25.33;;;12.53;;
3267;SDS011;1646;52.450;13.326;2023-03-03T16:31:52;25.93;;;11.63;;
3267;SDS011;1646;52.450;13.326;2023-03-03T16:36:56;24.90;;;11.60;;
3267;SDS011;1646;52.450;13.326;2023-03-03T16:42:02;26.30;;;13.30;;
3267;SDS011;1646;52.450;13.326;2023-03-03T16:47:12;25.60;;;12.90;;
3267;SDS011;1646;52.450;13.326;2023-03-03T16:52:17;31.90;;;13.73;;
3267;SDS011;1646;52.450;13.326;2023-03-03T16:57:24;26.43;;;12.90;;
3267;SDS011;1646;52.450;13.326;2023-03-03T17:02:33;23.07;;;11.63;;
3267;SDS011;1646;52.450;13.326;2023-03-03T17:08:08;31.37;;;13.93;;
3267;SDS011;1646;52.450;13.326;2023-03-03T17:18:53;26.30;;;12.13;;
3267;SDS011;1646;52.450;13.326;2023-03-03T17:24:00;26.33;;;12.53;;
3267;SDS011;1646;52.450;13.326;2023-03-03T17:29:09;23.67;;;11.50;;
3267;SDS011;1646;52.450;13.326;2023-03-03T17:34:27;27.10;;;12.50;;
3267;SDS011;1646;52.450;13.326;2023-03-03T17:39:43;27.53;;;14.33;;
3267;SDS011;1646;52.450;13.326;2023-03-03T17:44:59;23.70;;;11.57;;
3267;SDS011;1646;52.450;13.326;2023-03-03T17:50:33;28.17;;;14.53;;
3267;SDS011;1646;52.450;13.326;2023-03-03T17:55:53;23.60;;;11.83;;
3267;SDS011;1646;52.450;13.326;2023-03-03T18:01:05;24.47;;;12.23;;
3267;SDS011;1646;52.450;13.326;2023-03-03T18:06:18;30.50;;;12.60;;
3267;SDS011;1646;52.450;13.326;2023-03-03T18:11:39;31.03;;;13.43;;
3267;SDS011;1646;52.450;13.326;2023-03-03T18:16:55;27.40;;;12.47;;
3267;SDS011;1646;52.450;13.326;2023-03-03T18:22:16;31.43;;;13.73;;
3267;SDS011;1646;52.450;13.326;2023-03-03T18:27:30;23.63;;;11.40;;
3267;SDS011;1646;52.450;13.326;2023-03-03T18:32:40;23.90;;;12.50;;
3267;SDS011;1646;52.450;13.326;2023-03-03T18:37:40;26.47;;;12.93;;
3267;SDS011;1646;52.450;13.326;2023-03-03T18:42:41;25.23;;;12.10;;
3267;SDS011;1646;52.450;13.326;2023-03-03T18:48:03;25.10;;;12.47;;
3267;SDS011;1646;52.450;13.326;2023-03-03T18:53:07;27.20;;;12.90;;
3267;SDS011;1646;52.450;13.326;2023-03-03T18:58:26;26.60;;;12.47;;
3267;SDS011;1646;52.450;13.326;2023-03-03T19:09:04;28.43;;;13.10;;
3267;SDS011;1646;52.450;13.326;2023-03-03T19:14:19;25.67;;;12.67;;
3267;SDS011;1646;52.450;13.326;2023-03-03T19:19:28;31.70;;;15.97;;
3267;SDS011;1646;52.450;13.326;2023-03-03T19:24:32;27.53;;;13.30;;
3267;SDS011;1646;52.450;13.326;2023-03-03T19:34:53;30.03;;;13.40;;
3267;SDS011;1646;52.450;13.326;2023-03-03T19:40:03;29.57;;;14.23;;
3267;SDS011;1646;52.450;13.326;2023-03-03T19:45:24;30.90;;;13.57;;
3267;SDS011;1646;52.450;13.326;2023-03-03T19:50:31;25.57;;;13.57;;
3267;SDS011;1646;52.450;13.326;2023-03-03T19:55:42;30.07;;;13.20;;
3267;SDS011;1646;52.450;13.326;2023-03-03T20:00:51;25.30;;;12.47;;
3267;SDS011;1646;52.450;13.326;2023-03-03T20:05:54;37.60;;;14.70;;
3267;SDS011;1646;52.450;13.326;2023-03-03T20:11:00;31.70;;;12.90;;
3267;SDS011;1646;52.450;13.326;2023-03-03T20:16:08;30.40;;;13.70;;
3267;SDS011;1646;52.450;13.326;2023-03-03T20:21:18;24.87;;;12.70;;
3267;SDS011;1646;52.450;13.326;2023-03-03T20:26:25;30.53;;;13.30;;
3267;SDS011;1646;52.450;13.326;2023-03-03T20:31:31;28.17;;;12.27;;
3267;SDS011;1646;52.450;13.326;2023-03-03T20:36:38;32.00;;;13.63;;
3267;SDS011;1646;52.450;13.326;2023-03-03T20:41:48;28.13;;;12.10;;
3267;SDS011;1646;52.450;13.326;2023-03-03T20:46:57;26.07;;;12.00;;
3267;SDS011;1646;52.450;13.326;2023-03-03T20:52:01;26.80;;;11.53;;
3267;SDS011;1646;52.450;13.326;2023-03-03T20:57:07;24.30;;;11.27;;
3267;SDS011;1646;52.450;13.326;2023-03-03T21:02:17;28.87;;;11.70;;
3267;SDS011;1646;52.450;13.326;2023-03-03T21:07:24;22.20;;;11.23;;
3267;SDS011;1646;52.450;13.326;2023-03-03T21:12:28;34.33;;;11.87;;
3267;SDS011;1646;52.450;13.326;2023-03-03T21:17:28;25.93;;;11.10;;
3267;SDS011;1646;52.450;13.326;2023-03-03T21:22:27;27.50;;;12.03;;
3267;SDS011;1646;52.450;13.326;2023-03-03T21:27:27;22.73;;;10.23;;
3267;SDS011;1646;52.450;13.326;2023-03-03T21:32:33;27.67;;;11.63;;
3267;SDS011;1646;52.450;13.326;2023-03-03T21:37:46;24.93;;;11.53;;
3267;SDS011;1646;52.450;13.326;2023-03-03T21:42:47;32.20;;;12.40;;
3267;SDS011;1646;52.450;13.326;2023-03-03T21:47:46;24.50;;;11.77;;
3267;SDS011;1646;52.450;13.326;2023-03-03T21:52:45;30.50;;;12.10;;
3267;SDS011;1646;52.450;13.326;2023-03-03T21:57:43;31.40;;;12.30;;
3267;SDS011;1646;52.450;13.326;2023-03-03T22:02:42;29.07;;;11.20;;
3267;SDS011;1646;52.450;13.326;2023-03-03T22:07:41;30.90;;;12.67;;
3267;SDS011;1646;52.450;13.326;2023-03-03T22:12:39;29.93;;;14.57;;
3267;SDS011;1646;52.450;13.326;2023-03-03T22:17:37;29.60;;;14.17;;
3267;SDS011;1646;52.450;13.326;2023-03-03T22:22:37;41.20;;;16.73;;
3267;SDS011;1646;52.450;13.326;2023-03-03T22:27:35;35.37;;;14.93;;
3267;SDS011;1646;52.450;13.326;2023-03-03T22:32:33;40.27;;;15.70;;
3267;SDS011;1646;52.450;13.326;2023-03-03T22:37:32;44.50;;;17.60;;
3267;SDS011;1646;52.450;13.326;2023-03-03T22:42:31;43.10;;;17.63;;
3267;SDS011;1646;52.450;13.326;2023-03-03T22:47:29;42.53;;;18.03;;
3267;SDS011;1646;52.450;13.326;2023-03-03T22:52:28;44.43;;;17.83;;
3267;SDS011;1646;52.450;13.326;2023-03-03T22:57:26;41.20;;;17.07;;
3267;SDS011;1646;52.450;13.326;2023-03-03T23:02:26;44.07;;;17.70;;
3267;SDS011;1646;52.450;13.326;2023-03-03T23:07:25;42.77;;;17.17;;
3267;SDS011;1646;52.450;13.326;2023-03-03T23:12:24;45.03;;;17.00;;
3267;SDS011;1646;52.450;13.326;2023-03-03T23:17:22;39.73;;;16.40;;
3267;SDS011;1646;52.450;13.326;2023-03-03T23:22:22;40.87;;;17.43;;
3267;SDS011;1646;52.450;13.326;2023-03-03T23:27:20;42.17;;;17.40;;
3267;SDS011;1646;52.450;13.326;2023-03-03T23:32:18;47.43;;;18.50;;
3267;SDS011;1646;52.450;13.326;2023-03-03T23:37:20;47.77;;;19.37;;
3267;SDS011;1646;52.450;13.326;2023-03-03T23:42:19;40.43;;;17.73;;
3267;SDS011;1646;52.450;13.326;2023-03-03T23:47:18;42.03;;;18.93;;
3267;SDS011;1646;52.450;13.326;2023-03-03T23:52:16;42.03;;;17.67;;
3267;SDS011;1646;52.450;13.326;2023-03-03T23:57:18;46.17;;;16.40;;
